Friday, November 28, 2014
20:33 UTC
  |  Log In   |  Register Free
Airport Search:

Faribault Municipal Airport
(KFBL)

Faribault Municipal Airport Diagram
No Airport Diagram Available

FAA data valid effective November 13, 2014 - January 08, 2015 (unless otherwise noted).

 
 
 
 
 
 
 
 
 
 
 
 
 
 

Current Aviation Weather for Faribault Municipal Airport (KFBL)

The most recent METAR observation for KFBL was updated at: 2017
METAR Summary (Translated METAR)
KFBL
281954Z AUTO 13006KT 10SM SCT014 M05/M08 A2984 RMK AO2
KOWA
281955Z AUTO 14007KT 10SM CLR M06/M08 A2983 RMK AO2
(12.5 nm SE from KFBL)
KSYN
282014Z AUTO 14006KT 7SM UP SCT018 SCT043 BKN080 M04/M08 A2983 RMK AO2 T10401079
(15.5 nm NE from KFBL)
TAF
No TAF information found within 50 nm of KFBL
  Airport Weather Conditions for KFBL

 Current Weather at FBL
23° F
Partly Cloudy
Southeast winds at 6.9 mph
FBL NOAA Radar

Pressure: 29.84 in
Humidity: 80%
Wind: Southeast at 6.9 MPH (6 KT)
Dew Point: 17.6°F
Visibility: 10.00 mi


Airport Weather Forecast for KFBL

Translated METAR and TAF for KFBL
Translated METAR for KFBL (2028 UTC 28 November 2014)
found at http://aviationweather.gov/adds/metars/
 
METAR text: KFBL 282014Z AUTO 13006KT 10SM SCT095 M05/M08 A2983 RMK AO2
Conditions at: KFBL (FARIBAULT MUNI , MN, US) observed 2014 UTC 28 November 2014
Temperature: -5.0°C (23°F)
Dewpoint: -8.0°C (18°F) [RH = 79%]
Pressure (altimeter): 29.83 inches Hg (1010.2 mb)
Winds: from the SE (130 degrees) at 7 MPH (6 knots; 3.1 m/s)
Visibility: 10 or more miles (16+ km)
Ceiling: at least 12,000 feet AGL
Clouds: scattered clouds at 9500 feet AGL
Weather: automated observation with no human augmentation;
there may or may not be significant weather present at this time
Translated TAF for KFBL

There is no translated TAF available for this airport

Find All Airport Services Find A Hotel Find A Rental Car Find A Golf Course Find A Restaurant $100 Hamburger



FBO's on the Field
FBO Company Facility Photos Services Transportation Aviation Fuel Prices: Prices include tax
Catering Weather Repair Courtesy Rental Type 100LL JetA JetA+ MOGAS 8087
 
Quality Aviation

This FBO has not yet been rated
FS:Independent
Last Updated: Nov-14
Login to update fuel prices
SS:
Contact Quality AviationMore FBO Information
 
Add another FBO Facility Photos Catering Weather Repair Courtesy Rental Type 100LL JetA JetA+ MOGAS 8087
Services Transportation Aviation Fuel Prices: Prices include tax


model-print
model-print
model-print
model-print